Time;durP1;ratioP1;P1;durP2;ratioP2;P2;SDS_P1;SDS_P2;PMS_P1;PMS_P2;Temp;Humidity;BMP_temperature;BMP_pressure;BME280_temperature;BME280_humidity;BME280_pressure;Samples;Min_cycle;Max_cycle;Signal;HPM_P1;HPM_P2
2023/01/09 00:00:24;;;;;;;6.18;3.38;;;;;;;;;;5050437;28;20040;-76
2023/01/09 00:02:50;;;;;;;7.43;3.08;;;;;;;;;;5067773;28;20044;-76
2023/01/09 00:05:17;;;;;;;6.72;3.72;;;;;;;;;;5040231;28;20055;-76
2023/01/09 00:07:43;;;;;;;12.60;3.33;;;;;;;;;;5034911;28;20067;-76
2023/01/09 00:10:09;;;;;;;5.40;3.00;;;;;;;;;;5035050;28;20127;-76
2023/01/09 00:12:36;;;;;;;5.13;2.83;;;;;;;;;;5054270;28;22925;-76
2023/01/09 00:15:02;;;;;;;6.90;3.03;;;;;;;;;;5037546;28;20102;-76
2023/01/09 00:17:28;;;;;;;5.43;3.28;;;;;;;;;;5053365;28;20135;-76
2023/01/09 00:19:54;;;;;;;6.82;3.30;;;;;;;;;;5054851;28;20059;-76
2023/01/09 00:22:20;;;;;;;7.68;3.38;;;;;;;;;;5053633;28;20127;-76
2023/01/09 00:24:47;;;;;;;5.63;3.47;;;;;;;;;;5053566;28;20541;-75
2023/01/09 00:27:13;;;;;;;5.07;3.13;;;;;;;;;;5049725;28;23702;-76
2023/01/09 00:29:40;;;;;;;6.43;3.40;;;;;;;;;;5050708;28;20076;-75
2023/01/09 00:32:09;;;;;;;7.68;3.30;;;;;;;;;;5039101;28;20044;-75
2023/01/09 00:34:38;;;;;;;7.38;3.25;;;;;;;;;;5032369;28;20167;-76
2023/01/09 00:37:10;;;;;;;5.00;2.80;;;;;;;;;;5036771;28;20075;-75
2023/01/09 00:39:37;;;;;;;5.05;2.97;;;;;;;;;;5049279;28;20090;-75
2023/01/09 00:42:05;;;;;;;5.15;2.75;;;;;;;;;;5052346;28;20584;-74
2023/01/09 00:44:43;;;;;;;4.90;2.70;;;;;;;;;;5053164;28;20039;-75
2023/01/09 00:47:15;;;;;;;7.43;2.80;;;;;;;;;;5052564;28;20036;-75
2023/01/09 00:49:41;;;;;;;4.97;2.53;;;;;;;;;;5038353;28;20127;-75
2023/01/09 00:52:09;;;;;;;7.60;3.00;;;;;;;;;;5050506;28;20817;-74
2023/01/09 00:54:35;;;;;;;7.40;3.15;;;;;;;;;;5045735;28;20166;-74
2023/01/09 00:57:01;;;;;;;5.53;2.83;;;;;;;;;;5034077;28;20048;-76
2023/01/09 00:59:28;;;;;;;3.58;3.00;;;;;;;;;;5051204;28;20168;-74
2023/01/09 01:01:54;;;;;;;5.05;3.92;;;;;;;;;;5036421;28;20064;-74
2023/01/09 01:09:50;;;;;;;4.35;2.33;;;;;;;;;;5049972;28;20667;-75
2023/01/09 01:12:16;;;;;;;3.15;1.40;;;;;;;;;;5035164;28;21103;-75
2023/01/09 01:14:42;;;;;;;1.63;1.20;;;;;;;;;;5035519;28;20529;-75
2023/01/09 01:17:09;;;;;;;6.38;1.58;;;;;;;;;;5035603;28;20071;-76
2023/01/09 01:19:35;;;;;;;1.20;0.95;;;;;;;;;;5031443;28;20043;-75
2023/01/09 01:22:01;;;;;;;2.60;1.00;;;;;;;;;;5050932;28;20048;-75
2023/01/09 01:24:27;;;;;;;1.33;1.23;;;;;;;;;;5049984;28;20395;-75
2023/01/09 01:26:53;;;;;;;4.93;1.23;;;;;;;;;;5035830;28;20169;-76
2023/01/09 01:29:20;;;;;;;1.90;1.00;;;;;;;;;;5044976;28;20055;-75
2023/01/09 01:31:46;;;;;;;3.08;1.30;;;;;;;;;;5085299;28;21109;-75
2023/01/09 01:34:12;;;;;;;3.45;1.23;;;;;;;;;;5082098;28;20036;-75
2023/01/09 01:36:38;;;;;;;2.45;1.35;;;;;;;;;;5054472;28;20711;-76
2023/01/09 01:39:04;;;;;;;5.38;1.40;;;;;;;;;;5051357;28;20050;-75
2023/01/09 01:41:30;;;;;;;3.55;1.33;;;;;;;;;;5038178;28;20048;-76
2023/01/09 01:43:56;;;;;;;2.05;1.20;;;;;;;;;;5052917;28;20046;-75
2023/01/09 01:46:22;;;;;;;2.55;1.00;;;;;;;;;;5063858;28;20460;-76
2023/01/09 01:48:51;;;;;;;3.70;0.90;;;;;;;;;;5036316;28;20043;-75
2023/01/09 01:51:18;;;;;;;1.80;0.77;;;;;;;;;;5053884;28;20472;-75
2023/01/09 01:53:52;;;;;;;0.70;0.60;;;;;;;;;;5049110;28;20105;-75
2023/01/09 01:56:25;;;;;;;1.50;0.68;;;;;;;;;;5049805;28;20048;-75
2023/01/09 01:59:00;;;;;;;2.03;0.65;;;;;;;;;;5035264;28;20046;-76
2023/01/09 02:01:27;;;;;;;1.42;0.70;;;;;;;;;;5050205;28;20052;-75
2023/01/09 02:03:55;;;;;;;1.63;0.63;;;;;;;;;;5051160;28;20162;-76
2023/01/09 02:06:21;;;;;;;1.65;0.68;;;;;;;;;;5050810;28;20048;-76
2023/01/09 02:08:47;;;;;;;1.70;0.60;;;;;;;;;;5035503;28;20674;-76
2023/01/09 02:11:13;;;;;;;0.65;0.60;;;;;;;;;;5051021;28;20088;-76
2023/01/09 02:13:40;;;;;;;1.75;0.75;;;;;;;;;;5048977;28;20036;-76
2023/01/09 02:16:18;;;;;;;2.42;1.00;;;;;;;;;;5049053;28;20046;-76
2023/01/09 02:19:00;;;;;;;4.00;1.20;;;;;;;;;;5049543;28;20500;-75
2023/01/09 02:21:29;;;;;;;3.92;1.15;;;;;;;;;;5036415;28;20040;-76
2023/01/09 02:24:04;;;;;;;2.65;1.20;;;;;;;;;;5049608;28;20047;-76
2023/01/09 02:26:40;;;;;;;3.58;1.67;;;;;;;;;;5052125;28;22422;-76
2023/01/09 02:29:15;;;;;;;4.03;2.25;;;;;;;;;;5038684;28;20051;-76
2023/01/09 02:31:41;;;;;;;5.07;2.03;;;;;;;;;;5047449;28;20519;-75
2023/01/09 02:34:17;;;;;;;4.57;1.95;;;;;;;;;;5049056;28;20048;-74
2023/01/09 02:36:51;;;;;;;4.45;1.95;;;;;;;;;;5048673;28;20052;-74
2023/01/09 02:39:32;;;;;;;6.28;1.65;;;;;;;;;;5048943;28;20044;-75
2023/01/09 02:42:02;;;;;;;10.50;2.40;;;;;;;;;;5046553;28;20056;-75
2023/01/09 02:44:30;;;;;;;5.30;2.67;;;;;;;;;;5047992;28;20101;-76
2023/01/09 02:46:59;;;;;;;7.35;2.80;;;;;;;;;;5049256;28;20737;-75
2023/01/09 02:49:26;;;;;;;8.15;2.75;;;;;;;;;;5018187;28;20625;-75
2023/01/09 02:51:53;;;;;;;4.82;2.25;;;;;;;;;;5047837;28;20053;-75
2023/01/09 02:54:25;;;;;;;6.32;2.80;;;;;;;;;;5032931;28;20055;-75
2023/01/09 02:57:03;;;;;;;8.43;2.95;;;;;;;;;;5048880;28;20125;-75
2023/01/09 02:59:36;;;;;;;8.75;3.08;;;;;;;;;;5033022;28;20776;-76
2023/01/09 03:02:21;;;;;;;7.93;3.42;;;;;;;;;;5047846;28;20113;-76
2023/01/09 03:04:57;;;;;;;6.57;2.85;;;;;;;;;;5063969;28;20062;-75
2023/01/09 03:07:31;;;;;;;5.55;3.50;;;;;;;;;;5048552;28;20072;-76
2023/01/09 03:09:59;;;;;;;4.93;2.72;;;;;;;;;;5049810;28;20442;-76
2023/01/09 03:12:27;;;;;;;7.70;2.47;;;;;;;;;;5053144;28;20048;-76
2023/01/09 03:14:56;;;;;;;6.70;2.17;;;;;;;;;;5058552;28;20075;-76
2023/01/09 03:17:26;;;;;;;4.88;2.25;;;;;;;;;;5060800;28;20036;-76
2023/01/09 03:19:53;;;;;;;8.38;2.80;;;;;;;;;;5079990;28;20060;-75
2023/01/09 03:22:20;;;;;;;4.40;2.20;;;;;;;;;;5097072;28;20040;-74
2023/01/09 03:24:46;;;;;;;7.90;3.00;;;;;;;;;;5044685;28;20083;-74
2023/01/09 03:27:12;;;;;;;6.13;2.70;;;;;;;;;;5049981;28;20039;-75
2023/01/09 03:29:38;;;;;;;3.35;2.42;;;;;;;;;;5033286;28;20496;-75
2023/01/09 03:32:04;;;;;;;5.05;2.65;;;;;;;;;;5047476;28;20109;-75
2023/01/09 03:34:30;;;;;;;6.25;2.83;;;;;;;;;;5049544;28;20169;-76
2023/01/09 03:36:56;;;;;;;8.43;2.80;;;;;;;;;;5047113;28;20048;-76
2023/01/09 03:39:22;;;;;;;4.88;2.60;;;;;;;;;;5051309;28;20526;-76
2023/01/09 03:41:48;;;;;;;9.43;2.80;;;;;;;;;;5032307;28;20536;-76
2023/01/09 03:44:15;;;;;;;5.43;2.53;;;;;;;;;;5022494;28;20048;-76
2023/01/09 03:46:41;;;;;;;4.57;2.55;;;;;;;;;;5048246;28;20049;-76
2023/01/09 03:49:07;;;;;;;5.90;2.95;;;;;;;;;;5018329;28;20048;-76
2023/01/09 03:51:33;;;;;;;4.82;2.22;;;;;;;;;;5036692;28;20503;-76
2023/01/09 03:53:59;;;;;;;6.50;2.85;;;;;;;;;;5033222;28;20122;-76
2023/01/09 03:56:25;;;;;;;5.10;2.30;;;;;;;;;;5050439;28;20106;-75
2023/01/09 03:58:52;;;;;;;7.03;3.47;;;;;;;;;;5050123;28;20044;-75
2023/01/09 04:01:18;;;;;;;6.20;2.78;;;;;;;;;;5033402;28;20094;-75
2023/01/09 04:03:44;;;;;;;9.32;2.60;;;;;;;;;;5066012;28;20049;-75
2023/01/09 04:06:10;;;;;;;6.65;2.85;;;;;;;;;;5050848;28;20429;-76
2023/01/09 04:08:36;;;;;;;9.57;3.97;;;;;;;;;;5032868;28;20130;-76
2023/01/09 04:11:02;;;;;;;8.25;2.92;;;;;;;;;;5049424;28;20048;-75
2023/01/09 04:13:28;;;;;;;9.77;3.92;;;;;;;;;;5048327;28;20880;-75
2023/01/09 04:15:54;;;;;;;7.78;3.25;;;;;;;;;;5037376;28;20055;-76
2023/01/09 04:18:20;;;;;;;4.68;3.08;;;;;;;;;;5048566;28;20405;-76
2023/01/09 04:20:47;;;;;;;14.20;3.58;;;;;;;;;;5049521;28;20500;-76
2023/01/09 04:23:13;;;;;;;9.63;3.38;;;;;;;;;;5033004;28;20091;-76
2023/01/09 04:25:40;;;;;;;10.70;3.92;;;;;;;;;;5048165;28;20135;-75
2023/01/09 04:28:06;;;;;;;7.40;2.80;;;;;;;;;;5050516;28;20044;-75
2023/01/09 04:30:32;;;;;;;14.82;4.25;;;;;;;;;;5046907;28;20044;-75
2023/01/09 04:32:58;;;;;;;8.23;3.53;;;;;;;;;;5045752;28;20097;-74
2023/01/09 04:35:24;;;;;;;8.23;3.95;;;;;;;;;;5047756;28;20036;-74
2023/01/09 04:37:50;;;;;;;10.00;4.72;;;;;;;;;;5049359;28;20114;-74
2023/01/09 04:40:17;;;;;;;15.80;4.75;;;;;;;;;;5016382;28;20053;-75
2023/01/09 04:42:43;;;;;;;9.07;4.15;;;;;;;;;;5047496;28;20419;-75
2023/01/09 04:45:10;;;;;;;10.27;4.53;;;;;;;;;;5032381;28;20074;-76
2023/01/09 04:47:36;;;;;;;7.95;4.57;;;;;;;;;;5053936;28;20602;-76
2023/01/09 04:50:03;;;;;;;6.80;4.45;;;;;;;;;;5046756;28;20055;-75
2023/01/09 04:52:29;;;;;;;21.77;5.70;;;;;;;;;;5045104;28;20724;-75
2023/01/09 04:54:55;;;;;;;9.45;4.40;;;;;;;;;;5045950;28;20043;-75
2023/01/09 04:57:21;;;;;;;8.18;4.35;;;;;;;;;;5053071;28;20044;-75
2023/01/09 04:59:47;;;;;;;8.25;5.05;;;;;;;;;;5040196;28;20041;-74
2023/01/09 05:02:13;;;;;;;21.75;5.63;;;;;;;;;;5063443;28;20037;-75
2023/01/09 05:04:39;;;;;;;18.20;7.95;;;;;;;;;;5081012;28;20047;-75
2023/01/09 05:07:06;;;;;;;15.68;5.10;;;;;;;;;;5053979;28;20048;-74
2023/01/09 05:09:32;;;;;;;8.43;4.60;;;;;;;;;;5074305;28;20048;-75
2023/01/09 05:11:58;;;;;;;12.63;4.97;;;;;;;;;;5027874;28;20062;-75
2023/01/09 05:14:24;;;;;;;6.90;4.13;;;;;;;;;;5049165;28;20176;-75
2023/01/09 05:16:50;;;;;;;11.73;5.60;;;;;;;;;;5053643;28;20040;-75
2023/01/09 05:19:16;;;;;;;6.40;4.00;;;;;;;;;;5056382;28;20048;-76
2023/01/09 05:21:42;;;;;;;8.95;4.90;;;;;;;;;;5073139;28;20068;-75
2023/01/09 05:24:08;;;;;;;12.48;5.05;;;;;;;;;;5039359;28;20044;-75
2023/01/09 05:26:34;;;;;;;15.60;5.82;;;;;;;;;;5024993;28;20085;-76
2023/01/09 05:29:00;;;;;;;13.02;5.50;;;;;;;;;;5060064;28;20584;-73
2023/01/09 05:31:27;;;;;;;13.48;6.55;;;;;;;;;;5058958;28;20420;-75
2023/01/09 05:33:53;;;;;;;10.43;5.93;;;;;;;;;;5061168;28;20040;-75
2023/01/09 05:36:19;;;;;;;13.45;5.63;;;;;;;;;;5061993;28;20047;-75
2023/01/09 05:38:45;;;;;;;11.07;6.68;;;;;;;;;;5059391;28;20057;-75
2023/01/09 05:41:11;;;;;;;14.10;6.97;;;;;;;;;;5044075;28;20927;-75
2023/01/09 05:43:37;;;;;;;13.65;6.50;;;;;;;;;;5044136;28;20799;-73
2023/01/09 05:46:03;;;;;;;10.13;5.70;;;;;;;;;;5025723;28;20055;-74
2023/01/09 05:48:29;;;;;;;18.20;8.18;;;;;;;;;;5054729;28;20170;-75
2023/01/09 05:50:55;;;;;;;16.98;8.80;;;;;;;;;;5036234;28;20111;-75
2023/01/09 05:53:21;;;;;;;20.25;9.10;;;;;;;;;;5054375;28;20079;-75
2023/01/09 05:55:47;;;;;;;15.57;8.85;;;;;;;;;;5070032;27;20051;-75
2023/01/09 05:58:14;;;;;;;15.00;9.25;;;;;;;;;;5055284;28;20109;-76
2023/01/09 06:00:40;;;;;;;20.63;11.07;;;;;;;;;;5053849;28;21927;-75
2023/01/09 06:03:07;;;;;;;20.63;11.18;;;;;;;;;;5058096;28;20042;-75
2023/01/09 06:05:33;;;;;;;23.50;11.00;;;;;;;;;;5060270;28;20768;-75
2023/01/09 06:08:00;;;;;;;17.65;10.55;;;;;;;;;;5038184;28;20043;-75
2023/01/09 06:10:26;;;;;;;19.42;12.02;;;;;;;;;;5059162;28;20376;-75
2023/01/09 06:12:53;;;;;;;23.85;11.70;;;;;;;;;;5040444;28;20480;-75
2023/01/09 06:15:19;;;;;;;21.98;12.60;;;;;;;;;;5040039;28;20063;-76
2023/01/09 06:17:45;;;;;;;22.13;12.65;;;;;;;;;;5047204;28;20557;-76
2023/01/09 06:20:12;;;;;;;27.48;13.95;;;;;;;;;;5046300;28;20494;-76
2023/01/09 06:22:38;;;;;;;23.73;13.05;;;;;;;;;;5054646;28;20388;-76
2023/01/09 06:25:04;;;;;;;18.52;11.90;;;;;;;;;;5056928;28;20044;-75
2023/01/09 06:27:30;;;;;;;24.67;14.75;;;;;;;;;;5040717;28;20044;-76
2023/01/09 06:29:56;;;;;;;24.98;13.23;;;;;;;;;;5057456;28;20083;-75
2023/01/09 06:32:22;;;;;;;26.27;15.63;;;;;;;;;;5044786;28;20040;-75
2023/01/09 06:34:48;;;;;;;25.23;15.30;;;;;;;;;;5058275;28;20679;-75
2023/01/09 06:37:14;;;;;;;24.08;13.93;;;;;;;;;;5059815;28;20071;-75
2023/01/09 06:39:40;;;;;;;27.30;14.70;;;;;;;;;;5045989;28;20044;-75
2023/01/09 06:42:07;;;;;;;23.20;14.80;;;;;;;;;;5075633;28;20075;-75
2023/01/09 06:44:35;;;;;;;31.45;17.77;;;;;;;;;;5064211;28;20044;-75
2023/01/09 06:47:01;;;;;;;20.92;14.57;;;;;;;;;;5050658;28;21635;-75
2023/01/09 06:49:27;;;;;;;35.00;15.55;;;;;;;;;;5039443;28;20047;-75
2023/01/09 06:51:53;;;;;;;24.20;15.50;;;;;;;;;;5060871;28;20048;-75
2023/01/09 06:54:20;;;;;;;23.52;14.82;;;;;;;;;;5040197;28;20045;-74
2023/01/09 06:56:46;;;;;;;25.05;15.48;;;;;;;;;;5040702;28;21662;-75
2023/01/09 06:59:13;;;;;;;22.73;16.67;;;;;;;;;;5061207;28;20048;-75
2023/01/09 07:01:39;;;;;;;30.98;16.90;;;;;;;;;;5056578;28;20043;-75
2023/01/09 07:04:06;;;;;;;27.67;16.75;;;;;;;;;;5045943;28;20040;-75
2023/01/09 07:06:32;;;;;;;20.65;13.35;;;;;;;;;;5044118;28;20056;-77
2023/01/09 07:08:58;;;;;;;26.80;17.67;;;;;;;;;;5041260;28;20127;-75
2023/01/09 07:11:24;;;;;;;30.38;16.35;;;;;;;;;;5056217;28;20598;-75
2023/01/09 07:13:50;;;;;;;25.90;17.23;;;;;;;;;;5057205;28;20055;-75
2023/01/09 07:16:16;;;;;;;28.65;16.05;;;;;;;;;;5056859;28;20087;-75
2023/01/09 07:18:44;;;;;;;33.13;16.70;;;;;;;;;;5056310;28;20056;-75
2023/01/09 07:21:10;;;;;;;24.17;13.45;;;;;;;;;;5055071;28;20035;-76
2023/01/09 07:23:36;;;;;;;24.77;14.90;;;;;;;;;;5022972;28;20506;-75
2023/01/09 07:26:02;;;;;;;25.50;14.15;;;;;;;;;;5038939;28;20127;-75
2023/01/09 07:28:28;;;;;;;24.52;15.10;;;;;;;;;;5053235;28;20056;-75
2023/01/09 07:30:54;;;;;;;29.45;18.27;;;;;;;;;;5039909;28;20058;-75
2023/01/09 07:33:20;;;;;;;25.45;16.90;;;;;;;;;;5054656;28;20076;-76
2023/01/09 07:35:46;;;;;;;29.35;16.38;;;;;;;;;;5027549;28;20566;-74
2023/01/09 07:38:12;;;;;;;25.20;15.48;;;;;;;;;;5039904;28;20181;-75
2023/01/09 07:40:38;;;;;;;31.33;19.60;;;;;;;;;;5043022;28;20035;-74
2023/01/09 07:43:04;;;;;;;32.42;17.23;;;;;;;;;;5057598;28;20047;-76
2023/01/09 07:45:30;;;;;;;26.58;15.65;;;;;;;;;;5057966;28;20045;-75
2023/01/09 07:47:56;;;;;;;28.23;18.52;;;;;;;;;;5057067;28;21169;-75
2023/01/09 07:50:23;;;;;;;26.42;15.88;;;;;;;;;;5039318;28;20105;-74
2023/01/09 07:52:49;;;;;;;22.65;14.32;;;;;;;;;;5052669;28;20040;-75
2023/01/09 07:55:15;;;;;;;27.83;16.35;;;;;;;;;;5035285;28;20109;-73
2023/01/09 07:57:41;;;;;;;24.50;13.65;;;;;;;;;;5055709;28;21696;-74
2023/01/09 08:00:09;;;;;;;24.15;15.68;;;;;;;;;;5045653;28;20131;-74
2023/01/09 08:02:36;;;;;;;27.23;15.40;;;;;;;;;;5058295;28;20404;-75
2023/01/09 08:05:02;;;;;;;23.95;15.38;;;;;;;;;;5043929;28;20455;-74
2023/01/09 08:07:28;;;;;;;24.13;13.10;;;;;;;;;;5054140;28;20635;-74
2023/01/09 08:09:54;;;;;;;21.95;15.88;;;;;;;;;;5047967;28;20056;-74
2023/01/09 08:12:21;;;;;;;20.40;14.52;;;;;;;;;;5045533;28;20056;-75
2023/01/09 08:14:47;;;;;;;23.88;15.00;;;;;;;;;;5043826;28;20055;-74
2023/01/09 08:17:13;;;;;;;24.33;14.65;;;;;;;;;;5079387;28;20065;-75
2023/01/09 08:19:40;;;;;;;24.70;14.45;;;;;;;;;;5068953;28;20040;-74
2023/01/09 08:22:06;;;;;;;24.30;15.52;;;;;;;;;;5062626;28;20094;-75
2023/01/09 08:24:32;;;;;;;27.10;15.60;;;;;;;;;;5054656;28;20043;-74
2023/01/09 08:26:59;;;;;;;26.38;15.02;;;;;;;;;;5038175;28;20490;-74
2023/01/09 08:29:25;;;;;;;25.48;15.50;;;;;;;;;;5025649;28;20086;-74
2023/01/09 08:31:51;;;;;;;25.05;14.13;;;;;;;;;;5045602;28;20178;-75
2023/01/09 08:34:17;;;;;;;21.20;14.95;;;;;;;;;;5044576;28;20044;-75
2023/01/09 08:36:43;;;;;;;21.92;12.75;;;;;;;;;;5043481;28;20040;-75
2023/01/09 08:39:09;;;;;;;23.90;13.98;;;;;;;;;;5045364;28;20526;-75
2023/01/09 08:47:04;;;;;;;21.20;11.75;;;;;;;;;;5061603;28;20043;-76
2023/01/09 08:49:31;;;;;;;23.00;12.18;;;;;;;;;;5061950;28;20048;-75
2023/01/09 08:51:57;;;;;;;21.35;12.73;;;;;;;;;;5060443;28;20098;-76
2023/01/09 08:54:23;;;;;;;22.27;12.02;;;;;;;;;;5031476;28;20055;-75
2023/01/09 08:56:49;;;;;;;20.95;10.93;;;;;;;;;;5078724;27;20040;-76
2023/01/09 08:59:16;;;;;;;16.33;11.20;;;;;;;;;;5049019;28;20045;-76
2023/01/09 09:01:42;;;;;;;16.50;10.55;;;;;;;;;;5044358;28;20040;-76
2023/01/09 09:04:09;;;;;;;16.35;11.00;;;;;;;;;;5043576;28;20084;-75
2023/01/09 09:06:35;;;;;;;18.23;10.40;;;;;;;;;;5059639;28;20113;-76
2023/01/09 09:09:02;;;;;;;19.58;10.23;;;;;;;;;;5044221;28;20172;-76
2023/01/09 09:11:29;;;;;;;15.90;8.88;;;;;;;;;;5048039;28;20051;-76
2023/01/09 09:13:55;;;;;;;12.43;9.00;;;;;;;;;;5061122;28;20535;-76
2023/01/09 09:16:21;;;;;;;16.55;10.35;;;;;;;;;;5048713;28;20751;-76
2023/01/09 09:18:47;;;;;;;13.73;8.77;;;;;;;;;;5058922;28;20143;-76
2023/01/09 09:21:14;;;;;;;13.70;9.82;;;;;;;;;;5060088;28;21686;-76
2023/01/09 09:23:40;;;;;;;20.80;10.20;;;;;;;;;;5041492;28;20036;-75
2023/01/09 09:26:06;;;;;;;14.90;9.18;;;;;;;;;;5044865;28;20601;-75
2023/01/09 09:28:32;;;;;;;16.10;9.05;;;;;;;;;;5062932;28;20094;-75
2023/01/09 09:30:58;;;;;;;12.27;8.75;;;;;;;;;;5043058;28;20105;-75
2023/01/09 09:33:24;;;;;;;13.52;8.63;;;;;;;;;;5043686;28;20075;-75
2023/01/09 09:35:50;;;;;;;17.80;9.18;;;;;;;;;;5061392;28;20048;-75
2023/01/09 09:38:16;;;;;;;18.42;9.07;;;;;;;;;;5045904;28;20651;-75
2023/01/09 09:41:01;;;;;;;19.92;8.70;;;;;;;;;;5075650;28;20689;-75
2023/01/09 09:44:49;;;;;;;14.10;7.85;;;;;;;;;;5050506;28;20036;-75
2023/01/09 09:46:44;;;;;;;19.20;8.48;;;;;;;;;;5055122;28;20147;-74
2023/01/09 09:49:36;;;;;;;13.48;7.25;;;;;;;;;;5060316;28;20041;-75
2023/01/09 09:52:13;;;;;;;16.35;7.45;;;;;;;;;;5065660;28;20078;-75
2023/01/09 09:54:40;;;;;;;11.98;7.63;;;;;;;;;;5069636;28;20162;-75
2023/01/09 09:57:10;;;;;;;9.13;6.85;;;;;;;;;;5056620;28;20047;-75
2023/01/09 09:59:38;;;;;;;17.35;7.28;;;;;;;;;;5081567;28;20040;-74
2023/01/09 10:02:12;;;;;;;13.90;7.10;;;;;;;;;;5056745;28;20037;-75
2023/01/09 10:04:42;;;;;;;13.43;6.93;;;;;;;;;;5056160;28;20039;-75
2023/01/09 10:07:22;;;;;;;14.40;6.68;;;;;;;;;;5062869;28;21648;-75
2023/01/09 10:09:49;;;;;;;15.57;6.25;;;;;;;;;;5043509;28;20044;-73
2023/01/09 10:12:28;;;;;;;15.85;6.28;;;;;;;;;;5042075;28;20044;-74
2023/01/09 10:14:56;;;;;;;11.23;5.65;;;;;;;;;;5045141;28;20051;-74
2023/01/09 10:17:25;;;;;;;11.90;5.72;;;;;;;;;;5063009;28;20040;-75
2023/01/09 10:20:07;;;;;;;11.98;6.47;;;;;;;;;;5054661;28;20670;-75
2023/01/09 10:22:39;;;;;;;11.18;5.95;;;;;;;;;;5055276;28;20705;-73
2023/01/09 10:25:30;;;;;;;9.57;5.75;;;;;;;;;;5054670;28;20048;-74
2023/01/09 10:28:11;;;;;;;9.52;5.30;;;;;;;;;;5073191;28;20047;-74
2023/01/09 10:30:42;;;;;;;13.52;5.35;;;;;;;;;;5058766;28;20153;-73
2023/01/09 10:33:27;;;;;;;9.18;5.40;;;;;;;;;;5058702;28;20037;-74
2023/01/09 10:35:59;;;;;;;11.10;6.03;;;;;;;;;;5039951;28;20121;-75
2023/01/09 10:38:30;;;;;;;14.70;6.57;;;;;;;;;;5056975;28;20086;-75
2023/01/09 10:41:02;;;;;;;11.07;4.95;;;;;;;;;;5055760;28;21282;-75
2023/01/09 10:43:39;;;;;;;13.02;5.10;;;;;;;;;;5060714;28;20484;-75
2023/01/09 10:46:14;;;;;;;7.82;4.55;;;;;;;;;;5054054;28;20145;-75
2023/01/09 10:48:45;;;;;;;16.92;5.63;;;;;;;;;;5053224;28;20127;-74
2023/01/09 10:51:17;;;;;;;12.00;5.38;;;;;;;;;;5033686;28;20040;-74
2023/01/09 10:53:48;;;;;;;10.57;5.53;;;;;;;;;;5056373;28;20048;-74
2023/01/09 10:56:23;;;;;;;11.45;4.78;;;;;;;;;;5054479;28;20618;-75
2023/01/09 10:58:50;;;;;;;10.90;4.88;;;;;;;;;;5053801;28;20515;-74
2023/01/09 11:01:24;;;;;;;10.82;5.05;;;;;;;;;;5057346;28;20032;-74
2023/01/09 11:03:50;;;;;;;10.70;5.22;;;;;;;;;;5041124;28;20044;-75
2023/01/09 11:06:25;;;;;;;12.20;5.38;;;;;;;;;;5054416;28;20864;-74
2023/01/09 11:08:53;;;;;;;9.70;6.15;;;;;;;;;;5043312;28;20049;-74
2023/01/09 11:11:42;;;;;;;13.35;5.43;;;;;;;;;;5048656;28;20431;-74
2023/01/09 11:14:26;;;;;;;8.02;4.95;;;;;;;;;;5053587;28;20127;-73
2023/01/09 11:17:00;;;;;;;9.25;4.60;;;;;;;;;;5053012;28;20478;-75
2023/01/09 11:19:27;;;;;;;9.73;4.60;;;;;;;;;;5038768;28;20036;-75
2023/01/09 11:22:17;;;;;;;10.55;4.72;;;;;;;;;;5042617;28;20051;-74
2023/01/09 11:24:43;;;;;;;9.75;4.80;;;;;;;;;;5047399;28;20626;-75
2023/01/09 11:27:12;;;;;;;8.32;4.47;;;;;;;;;;5036588;28;20053;-73
2023/01/09 11:29:39;;;;;;;7.72;4.40;;;;;;;;;;5054732;28;20395;-75
2023/01/09 11:32:05;;;;;;;7.95;4.60;;;;;;;;;;5054577;28;20625;-75
2023/01/09 11:34:32;;;;;;;12.07;4.15;;;;;;;;;;5045965;28;20055;-74
2023/01/09 11:37:03;;;;;;;8.70;4.32;;;;;;;;;;5059120;28;21683;-74
2023/01/09 11:39:31;;;;;;;7.32;3.63;;;;;;;;;;5070155;28;20112;-75
2023/01/09 11:41:59;;;;;;;14.63;4.82;;;;;;;;;;5057800;28;21585;-75
2023/01/09 11:44:25;;;;;;;8.45;3.92;;;;;;;;;;5041480;28;21617;-75
2023/01/09 11:46:51;;;;;;;9.80;4.30;;;;;;;;;;5052706;28;20071;-76
2023/01/09 11:49:28;;;;;;;13.07;4.90;;;;;;;;;;5037230;28;20129;-75
2023/01/09 11:52:11;;;;;;;13.57;4.40;;;;;;;;;;5045058;28;20553;-76
2023/01/09 11:54:41;;;;;;;11.75;4.40;;;;;;;;;;5045358;28;20079;-76
2023/01/09 11:57:10;;;;;;;9.35;4.03;;;;;;;;;;5057414;28;20040;-75
2023/01/09 11:59:36;;;;;;;10.30;4.35;;;;;;;;;;5058473;28;20451;-74
2023/01/09 12:02:22;;;;;;;15.50;4.30;;;;;;;;;;5059114;28;20052;-74
2023/01/09 12:04:56;;;;;;;10.52;4.78;;;;;;;;;;5058473;28;20079;-74
2023/01/09 12:07:31;;;;;;;12.18;4.45;;;;;;;;;;5060039;28;20059;-74
2023/01/09 12:09:57;;;;;;;8.13;4.40;;;;;;;;;;5061530;28;20429;-75
2023/01/09 12:12:23;;;;;;;9.85;4.57;;;;;;;;;;5061469;28;20047;-75
2023/01/09 12:14:49;;;;;;;7.68;4.22;;;;;;;;;;5046715;28;20487;-75
2023/01/09 12:17:54;;;;;;;7.95;3.65;;;;;;;;;;5059849;28;20059;-75
2023/01/09 12:20:27;;;;;;;9.77;4.90;;;;;;;;;;4983937;28;20053;-75
2023/01/09 12:22:59;;;;;;;11.73;5.43;;;;;;;;;;4984998;28;20045;-75
2023/01/09 12:25:45;;;;;;;10.93;4.35;;;;;;;;;;5006501;28;20054;-76
2023/01/09 12:28:11;;;;;;;7.05;4.07;;;;;;;;;;5054832;28;20382;-76
2023/01/09 12:30:56;;;;;;;14.63;5.68;;;;;;;;;;5052961;28;20488;-76
2023/01/09 12:33:30;;;;;;;11.45;5.13;;;;;;;;;;5054485;28;20471;-75
2023/01/09 12:36:15;;;;;;;11.82;5.07;;;;;;;;;;5038089;28;20089;-75
2023/01/09 12:38:47;;;;;;;10.40;4.65;;;;;;;;;;5054238;28;20487;-75
2023/01/09 12:41:21;;;;;;;8.98;5.13;;;;;;;;;;5055298;28;20044;-75
2023/01/09 12:44:08;;;;;;;9.50;5.13;;;;;;;;;;5055995;28;20047;-75
2023/01/09 12:46:53;;;;;;;13.45;5.13;;;;;;;;;;5074876;27;20036;-75
2023/01/09 12:49:19;;;;;;;13.57;5.93;;;;;;;;;;5057795;28;20048;-76
2023/01/09 12:52:04;;;;;;;10.90;5.28;;;;;;;;;;5044288;28;20129;-73
2023/01/09 12:54:45;;;;;;;10.40;5.00;;;;;;;;;;5057543;28;20207;-74
2023/01/09 12:57:20;;;;;;;13.55;6.15;;;;;;;;;;5055824;28;20040;-75
2023/01/09 12:59:48;;;;;;;8.98;5.70;;;;;;;;;;5056378;28;20215;-74
2023/01/09 13:02:18;;;;;;;14.35;6.00;;;;;;;;;;5056118;28;20040;-75
2023/01/09 13:05:10;;;;;;;12.02;6.13;;;;;;;;;;5053223;28;21633;-75
2023/01/09 13:07:42;;;;;;;12.02;6.47;;;;;;;;;;5056122;28;20113;-75
2023/01/09 13:10:29;;;;;;;11.43;5.93;;;;;;;;;;5048892;28;20045;-74
2023/01/09 13:12:57;;;;;;;14.57;7.80;;;;;;;;;;5060861;28;20433;-74
2023/01/09 13:15:37;;;;;;;12.63;7.38;;;;;;;;;;5075145;28;20048;-75
2023/01/09 13:18:12;;;;;;;14.35;6.50;;;;;;;;;;5073478;28;20055;-74
2023/01/09 13:20:46;;;;;;;18.42;11.25;;;;;;;;;;5061419;28;20573;-75
2023/01/09 13:23:18;;;;;;;12.05;6.57;;;;;;;;;;5057014;28;20504;-76
2023/01/09 13:25:49;;;;;;;14.45;10.50;;;;;;;;;;5057463;28;20576;-75
2023/01/09 13:28:23;;;;;;;27.90;19.50;;;;;;;;;;5056511;28;20051;-76
2023/01/09 13:30:55;;;;;;;17.08;10.43;;;;;;;;;;5057318;28;20350;-76
2023/01/09 13:33:29;;;;;;;10.73;7.53;;;;;;;;;;5039625;28;20052;-76
2023/01/09 13:35:56;;;;;;;16.83;9.10;;;;;;;;;;5060723;28;20129;-75
2023/01/09 13:38:24;;;;;;;22.27;8.95;;;;;;;;;;5056935;28;20783;-75
2023/01/09 13:44:13;;;;;;;19.38;13.02;;;;;;;;;;5053292;28;20048;-75
2023/01/09 13:46:40;;;;;;;13.65;8.25;;;;;;;;;;5031268;28;20084;-76
2023/01/09 13:49:26;;;;;;;55.58;33.15;;;;;;;;;;5055028;28;20047;-75
2023/01/09 13:51:57;;;;;;;21.77;10.90;;;;;;;;;;5039706;28;20043;-75
2023/01/09 13:54:42;;;;;;;23.67;14.93;;;;;;;;;;5054442;28;20052;-76
2023/01/09 13:57:16;;;;;;;19.40;14.55;;;;;;;;;;5059200;28;20044;-75
2023/01/09 13:59:43;;;;;;;14.07;8.73;;;;;;;;;;5038746;28;20055;-76
2023/01/09 14:02:28;;;;;;;14.88;9.05;;;;;;;;;;5054669;28;20040;-76
2023/01/09 14:04:55;;;;;;;19.75;11.38;;;;;;;;;;5056405;28;20048;-75
2023/01/09 14:07:25;;;;;;;45.50;27.83;;;;;;;;;;5053992;28;20246;-76
2023/01/09 14:09:55;;;;;;;16.95;8.88;;;;;;;;;;5053733;28;20048;-75
2023/01/09 14:12:22;;;;;;;14.95;10.77;;;;;;;;;;5053858;28;20151;-75
2023/01/09 14:14:50;;;;;;;13.82;10.32;;;;;;;;;;5036400;28;20048;-75
2023/01/09 14:17:18;;;;;;;15.15;9.00;;;;;;;;;;5037212;28;20343;-76
2023/01/09 14:19:44;;;;;;;13.65;8.63;;;;;;;;;;5037279;28;20040;-76
2023/01/09 14:22:24;;;;;;;17.52;11.40;;;;;;;;;;5052522;28;20135;-76
2023/01/09 14:24:52;;;;;;;24.98;18.05;;;;;;;;;;5053291;28;20149;-76
2023/01/09 14:27:37;;;;;;;13.02;9.13;;;;;;;;;;5053583;28;20121;-76
2023/01/09 14:30:21;;;;;;;14.45;10.10;;;;;;;;;;5039214;28;20327;-75
2023/01/09 14:33:08;;;;;;;17.02;11.15;;;;;;;;;;5050808;28;20417;-76
2023/01/09 14:35:38;;;;;;;20.17;11.15;;;;;;;;;;5036514;28;20419;-76
2023/01/09 14:38:06;;;;;;;16.88;9.40;;;;;;;;;;5037244;28;20044;-76
2023/01/09 14:40:33;;;;;;;17.35;10.00;;;;;;;;;;5050374;28;20942;-76
2023/01/09 14:43:04;;;;;;;16.05;10.48;;;;;;;;;;5061590;28;20480;-75
2023/01/09 14:45:31;;;;;;;14.68;10.05;;;;;;;;;;5050116;28;20040;-76
2023/01/09 14:48:03;;;;;;;20.63;9.63;;;;;;;;;;5054236;28;20411;-76
2023/01/09 14:50:29;;;;;;;14.85;9.90;;;;;;;;;;5037008;28;20039;-76
2023/01/09 14:53:06;;;;;;;17.40;10.00;;;;;;;;;;5053050;28;21124;-76
2023/01/09 14:55:45;;;;;;;19.77;11.75;;;;;;;;;;5045126;28;20041;-76
2023/01/09 14:58:17;;;;;;;17.40;10.23;;;;;;;;;;5065529;28;20553;-75